Time;durP1;ratioP1;P1;durP2;ratioP2;P2;SDS_P1;SDS_P2;PMS_P1;PMS_P2;Temp;Humidity;BMP_temperature;BMP_pressure;BME280_temperature;BME280_humidity;BME280_pressure;Samples;Min_cycle;Max_cycle;Signal;HPM_P1;HPM_P2
2022/05/01 00:00:28;;;;;;;;;3.00;3.00;;;;;-146.67;100.00;57155.34;5041728;28;61716;-75
2022/05/01 00:02:54;;;;;;;;;8.00;4.25;;;;;-146.67;100.00;57155.34;5039885;28;61775;-74
2022/05/01 00:05:20;;;;;;;;;4.00;2.00;;;;;-146.67;100.00;57155.34;5041828;28;61821;-75
2022/05/01 00:07:45;;;;;;;;;2.00;2.00;;;;;-146.67;100.00;57155.34;5041089;28;61878;-74
2022/05/01 00:10:11;;;;;;;;;6.50;3.75;;;;;-146.67;100.00;57155.34;5041943;28;61978;-75
2022/05/01 00:12:36;;;;;;;;;3.00;3.00;;;;;-146.67;100.00;57155.34;5041273;28;61816;-75
2022/05/01 00:15:05;;;;;;;;;5.00;4.50;;;;;-146.67;100.00;57155.34;5042028;28;61818;-75
2022/05/01 00:17:31;;;;;;;;;4.00;3.00;;;;;-146.67;100.00;57155.34;5040136;28;62020;-75
2022/05/01 00:19:56;;;;;;;;;5.00;5.00;;;;;-146.67;100.00;57155.34;5041886;28;62034;-75
2022/05/01 00:22:21;;;;;;;;;5.75;4.00;;;;;-146.67;100.00;57155.34;5040756;28;61799;-75
2022/05/01 00:24:47;;;;;;;;;3.00;2.25;;;;;-146.67;100.00;57155.34;5041733;28;61754;-75
2022/05/01 00:27:13;;;;;;;;;3.50;3.00;;;;;-146.67;100.00;57155.34;5040039;28;61881;-75
2022/05/01 00:29:39;;;;;;;;;5.25;4.00;;;;;-146.67;100.00;57155.34;5041953;28;61859;-75
2022/05/01 00:32:06;;;;;;;;;3.00;3.00;;;;;-146.67;100.00;57155.34;5040773;28;62513;-75
2022/05/01 00:37:15;;;;;;;;;4.00;2.50;;;;;-146.67;100.00;57155.34;5041615;28;61744;-75
2022/05/01 00:39:40;;;;;;;;;3.50;2.00;;;;;-146.67;100.00;57155.34;5039923;28;61709;-75
2022/05/01 00:42:06;;;;;;;;;3.50;3.00;;;;;-146.67;100.00;57155.34;5040734;28;62471;-75
2022/05/01 00:44:32;;;;;;;;;5.00;5.00;;;;;-146.67;100.00;57155.34;5041495;28;62142;-75
2022/05/01 00:46:59;;;;;;;;;7.00;2.00;;;;;-146.67;100.00;57155.34;5040702;28;61802;-74
2022/05/01 00:49:27;;;;;;;;;6.00;3.00;;;;;-146.67;100.00;57155.34;5040704;28;61791;-74
2022/05/01 00:51:54;;;;;;;;;3.25;2.50;;;;;-146.67;100.00;57155.34;5039759;28;61862;-75
2022/05/01 00:54:22;;;;;;;;;4.00;2.50;;;;;-146.67;100.00;57155.34;5041069;28;61798;-75
2022/05/01 00:56:53;;;;;;;;;3.50;2.75;;;;;-146.67;100.00;57155.34;5041326;28;61779;-75
2022/05/01 00:59:20;;;;;;;;;5.50;3.75;;;;;-146.67;100.00;57155.34;5041393;28;61696;-75
2022/05/01 01:01:48;;;;;;;;;5.75;4.50;;;;;-146.67;100.00;57155.34;5040193;28;61773;-75
2022/05/01 01:04:14;;;;;;;;;5.25;3.25;;;;;-146.67;100.00;57155.34;5040870;28;61828;-74
2022/05/01 01:06:41;;;;;;;;;7.75;4.50;;;;;-146.67;100.00;57155.34;5041279;28;61765;-75
2022/05/01 01:09:07;;;;;;;;;6.50;3.00;;;;;-146.67;100.00;57155.34;5040893;28;61828;-75
2022/05/01 01:11:33;;;;;;;;;8.00;4.25;;;;;-146.67;100.00;57155.34;5041197;28;61803;-74
2022/05/01 01:13:59;;;;;;;;;4.00;3.75;;;;;-146.67;100.00;57155.34;5044751;28;61743;-74
2022/05/01 01:16:25;;;;;;;;;7.25;3.00;;;;;-146.67;100.00;57155.34;5044166;28;61721;-74
2022/05/01 01:18:51;;;;;;;;;3.50;3.50;;;;;-146.67;100.00;57155.34;5044348;28;61864;-74
2022/05/01 01:21:18;;;;;;;;;6.00;5.00;;;;;-146.67;100.00;57155.34;5043699;28;61942;-74
2022/05/01 01:23:45;;;;;;;;;3.50;3.00;;;;;-146.67;100.00;57155.34;5044608;28;61871;-74
2022/05/01 01:26:13;;;;;;;;;7.75;4.50;;;;;-146.67;100.00;57155.34;5044219;28;61949;-74
2022/05/01 01:28:40;;;;;;;;;0.75;0.25;;;;;-146.67;100.00;57155.34;5044416;28;61751;-74
2022/05/01 01:33:58;;;;;;;;;7.25;4.75;;;;;-146.67;100.00;57155.34;5044113;28;61902;-74
2022/05/01 01:36:27;;;;;;;;;6.75;3.75;;;;;-146.67;100.00;57155.34;5044246;28;61816;-74
2022/05/01 01:38:53;;;;;;;;;5.25;5.25;;;;;-146.67;100.00;57155.34;5043987;28;61860;-74
2022/05/01 01:41:22;;;;;;;;;6.50;4.50;;;;;-146.67;100.00;57155.34;5043084;28;61787;-74
2022/05/01 01:43:49;;;;;;;;;5.25;2.00;;;;;-146.67;100.00;57155.34;5044047;28;61799;-74
2022/05/01 01:46:15;;;;;;;;;7.00;4.00;;;;;-146.67;100.00;57155.34;5043753;28;61922;-74
2022/05/01 01:48:40;;;;;;;;;4.50;4.50;;;;;-146.67;100.00;57155.34;5043392;28;61974;-74
2022/05/01 01:51:06;;;;;;;;;3.00;3.00;;;;;-146.67;100.00;57155.34;5043020;28;62793;-74
2022/05/01 01:53:34;;;;;;;;;4.00;3.00;;;;;-146.67;100.00;57155.34;5043722;28;61705;-74
2022/05/01 01:56:00;;;;;;;;;6.00;4.00;;;;;-146.67;100.00;57155.34;5044124;28;61890;-74
2022/05/01 01:58:27;;;;;;;;;6.75;5.50;;;;;-146.67;100.00;57155.34;5044093;28;61998;-74
2022/05/01 02:00:53;;;;;;;;;6.50;5.25;;;;;-146.67;100.00;57155.34;5058035;28;61907;-74
2022/05/01 02:03:19;;;;;;;;;4.50;3.50;;;;;-146.67;100.00;57155.34;5042090;28;61828;-74
2022/05/01 02:05:46;;;;;;;;;7.00;7.00;;;;;-146.67;100.00;57155.34;5043675;28;61748;-74
2022/05/01 02:08:12;;;;;;;;;8.50;5.00;;;;;-146.67;100.00;57155.34;5043396;28;61842;-74
2022/05/01 02:10:39;;;;;;;;;6.00;6.00;;;;;-146.67;100.00;57155.34;5042963;28;62644;-74
2022/05/01 02:13:05;;;;;;;;;6.75;5.50;;;;;-146.67;100.00;57155.34;5043479;28;61793;-74
2022/05/01 02:15:30;;;;;;;;;6.00;3.50;;;;;-146.67;100.00;57155.34;5043290;28;62298;-74
2022/05/01 02:17:58;;;;;;;;;6.75;6.00;;;;;-146.67;100.00;57155.34;5043428;28;61814;-74
2022/05/01 02:20:24;;;;;;;;;7.25;5.75;;;;;-146.67;100.00;57155.34;5042636;28;62854;-74
2022/05/01 02:22:49;;;;;;;;;8.25;7.00;;;;;-146.67;100.00;57155.34;5042299;28;62138;-74
2022/05/01 02:25:15;;;;;;;;;6.50;5.00;;;;;-146.67;100.00;57155.34;5043514;28;61717;-74
2022/05/01 02:27:41;;;;;;;;;14.00;7.00;;;;;-146.67;100.00;57155.34;5043364;28;62065;-74
2022/05/01 02:30:07;;;;;;;;;6.75;4.00;;;;;-146.67;100.00;57155.34;5042498;28;61875;-74
2022/05/01 02:32:36;;;;;;;;;9.75;6.25;;;;;-146.67;100.00;57155.34;5042217;28;62009;-74
2022/05/01 02:35:02;;;;;;;;;6.25;6.25;;;;;-146.67;100.00;57155.34;5058855;28;61841;-74
2022/05/01 02:37:27;;;;;;;;;9.00;5.00;;;;;-146.67;100.00;57155.34;5043458;28;61800;-74
2022/05/01 02:39:53;;;;;;;;;4.25;3.00;;;;;-146.67;100.00;57155.34;5042041;28;62814;-74
2022/05/01 02:42:19;;;;;;;;;6.00;3.25;;;;;-146.67;100.00;57155.34;5043116;28;61888;-74
2022/05/01 02:44:44;;;;;;;;;3.50;3.50;;;;;-146.67;100.00;57155.34;5041511;28;62944;-74
2022/05/01 02:47:11;;;;;;;;;12.50;7.25;;;;;-146.67;100.00;57155.34;5042026;28;62129;-74
2022/05/01 02:49:37;;;;;;;;;12.25;8.50;;;;;-146.67;100.00;57155.34;5042158;28;61869;-74
2022/05/01 02:52:03;;;;;;;;;7.75;6.00;;;;;-146.67;100.00;57155.34;5043202;28;61911;-74
2022/05/01 02:54:28;;;;;;;;;11.25;7.50;;;;;-146.67;100.00;57155.34;5043101;28;61920;-74
2022/05/01 02:56:54;;;;;;;;;6.00;5.00;;;;;-146.67;100.00;57155.34;5042819;28;62026;-74
2022/05/01 02:59:20;;;;;;;;;6.25;5.50;;;;;-146.67;100.00;57155.34;5042167;28;62716;-74
2022/05/01 03:01:45;;;;;;;;;5.75;5.50;;;;;-146.67;100.00;57155.34;5041894;28;62102;-74
2022/05/01 03:04:11;;;;;;;;;12.50;6.00;;;;;-146.67;100.00;57155.34;5041593;28;61953;-74
2022/05/01 03:06:37;;;;;;;;;6.50;5.25;;;;;-146.67;100.00;57155.34;5058303;28;61942;-73
2022/05/01 03:09:03;;;;;;;;;7.75;6.75;;;;;-146.67;100.00;57155.34;5041644;28;61803;-73
2022/05/01 03:11:29;;;;;;;;;7.50;6.25;;;;;-146.67;100.00;57155.34;5042314;28;61911;-73
2022/05/01 03:13:54;;;;;;;;;9.75;6.00;;;;;-146.67;100.00;57155.34;5042684;28;62073;-73
2022/05/01 03:16:20;;;;;;;;;5.00;4.50;;;;;-146.67;100.00;57155.34;5041968;28;61922;-74
2022/05/01 03:24:18;;;;;;;;;6.00;6.00;;;;;-146.67;100.00;57155.34;5042541;28;61728;-74
2022/05/01 03:26:43;;;;;;;;;7.50;4.50;;;;;-146.67;100.00;57155.34;5042696;28;61843;-73
2022/05/01 03:29:10;;;;;;;;;7.00;5.50;;;;;-146.67;100.00;57155.34;5041405;28;62638;-73
2022/05/01 03:31:37;;;;;;;;;6.75;6.75;;;;;-146.67;100.00;57155.34;5041894;28;61736;-73
2022/05/01 03:34:04;;;;;;;;;9.25;7.00;;;;;-146.67;100.00;57155.34;5041958;28;61906;-73
2022/05/01 03:36:29;;;;;;;;;6.00;6.00;;;;;-146.67;100.00;57155.34;5042446;28;61787;-74
2022/05/01 03:38:55;;;;;;;;;7.50;6.25;;;;;-146.67;100.00;57155.34;5040964;28;61856;-74
2022/05/01 03:41:20;;;;;;;;;12.25;8.25;;;;;-146.67;100.00;57155.34;5040794;28;61916;-74
2022/05/01 03:43:46;;;;;;;;;12.00;7.50;;;;;-146.67;100.00;57155.34;5041826;28;62221;-73
2022/05/01 03:46:11;;;;;;;;;14.75;5.50;;;;;-146.67;100.00;57155.34;5040855;28;61862;-74
2022/05/01 03:48:37;;;;;;;;;11.50;6.00;;;;;-146.67;100.00;57155.34;5041296;28;62036;-74
2022/05/01 03:51:02;;;;;;;;;12.00;6.75;;;;;-146.67;100.00;57155.34;5041799;28;62029;-75
2022/05/01 03:53:29;;;;;;;;;11.25;7.00;;;;;-146.67;100.00;57155.34;5042289;28;61794;-75
2022/05/01 03:55:55;;;;;;;;;7.25;7.25;;;;;-146.67;100.00;57155.34;5057775;28;61760;-75
2022/05/01 03:58:21;;;;;;;;;6.50;5.75;;;;;-146.67;100.00;57155.34;5041208;28;61850;-75
2022/05/01 04:00:47;;;;;;;;;7.50;6.25;;;;;-146.67;100.00;57155.34;5041512;28;61736;-75
2022/05/01 04:03:19;;;;;;;;;8.50;7.50;;;;;-146.67;100.00;57155.34;5042062;28;62084;-74
2022/05/01 04:05:46;;;;;;;;;13.75;9.00;;;;;-146.67;100.00;57155.34;5042339;28;61848;-75
2022/05/01 04:08:12;;;;;;;;;10.00;7.25;;;;;-146.67;100.00;57155.34;5040715;28;61836;-74
2022/05/01 04:10:42;;;;;;;;;4.50;4.50;;;;;-146.67;100.00;57155.34;5042017;28;61842;-75
2022/05/01 04:13:09;;;;;;;;;7.25;6.00;;;;;-146.67;100.00;57155.34;5041210;28;62017;-74
2022/05/01 04:15:36;;;;;;;;;10.00;8.75;;;;;-146.67;100.00;57155.34;5041784;28;61881;-75
2022/05/01 04:18:02;;;;;;;;;9.25;8.50;;;;;-146.67;100.00;57155.34;5041298;28;61743;-75
2022/05/01 04:20:29;;;;;;;;;9.25;8.00;;;;;-146.67;100.00;57155.34;5041566;28;61712;-75
2022/05/01 04:22:54;;;;;;;;;7.25;7.25;;;;;-146.67;100.00;57155.34;5041690;28;61812;-75
2022/05/01 04:25:22;;;;;;;;;17.25;10.75;;;;;-146.67;100.00;57155.34;5041996;28;61996;-74
2022/05/01 04:27:51;;;;;;;;;14.00;9.75;;;;;-146.67;100.00;57155.34;5040835;28;62610;-75
2022/05/01 04:30:18;;;;;;;;;8.25;7.25;;;;;-146.67;100.00;57155.34;5041675;28;62040;-75
2022/05/01 04:32:51;;;;;;;;;9.00;8.00;;;;;-146.67;100.00;57155.34;5040287;28;61781;-74
2022/05/01 04:35:31;;;;;;;;;13.25;8.00;;;;;-146.67;100.00;57155.34;5042068;28;61807;-74
2022/05/01 04:37:59;;;;;;;;;8.25;8.00;;;;;-146.67;100.00;57155.34;5040338;28;62585;-74
2022/05/01 04:40:26;;;;;;;;;10.75;8.50;;;;;-146.67;100.00;57155.34;5041566;28;61906;-74
2022/05/01 04:42:52;;;;;;;;;11.50;9.25;;;;;-146.67;100.00;57155.34;5041379;28;62106;-74
2022/05/01 04:45:18;;;;;;;;;11.25;7.75;;;;;-146.67;100.00;57155.34;5041817;28;61839;-74
2022/05/01 04:47:45;;;;;;;;;12.50;10.00;;;;;-146.67;100.00;57155.34;5042569;28;61878;-74
2022/05/01 04:50:11;;;;;;;;;10.50;9.00;;;;;-146.67;100.00;57155.34;5044802;28;61649;-74
2022/05/01 04:52:38;;;;;;;;;8.25;6.75;;;;;-146.67;100.00;57155.34;5045236;28;61799;-75
2022/05/01 04:55:05;;;;;;;;;11.50;9.75;;;;;-146.67;100.00;57155.34;5045194;28;62066;-75
2022/05/01 04:57:31;;;;;;;;;9.25;9.25;;;;;-146.67;100.00;57155.34;5042605;28;63486;-74
2022/05/01 04:59:57;;;;;;;;;13.00;7.75;;;;;-146.67;100.00;57155.34;5044966;28;61901;-75
2022/05/01 05:02:22;;;;;;;;;9.00;7.00;;;;;-146.67;100.00;57155.34;5044309;28;61967;-75
2022/05/01 05:04:49;;;;;;;;;7.25;7.25;;;;;-146.67;100.00;57155.34;5045235;28;62025;-74
2022/05/01 05:07:14;;;;;;;;;9.75;7.00;;;;;-146.67;100.00;57155.34;5045182;28;63118;-74
2022/05/01 05:09:55;;;;;;;;;8.25;6.50;;;;;-146.67;100.00;57155.34;5042880;28;61730;-74
2022/05/01 05:12:22;;;;;;;;;8.75;8.75;;;;;-146.67;100.00;57155.34;5042966;28;61765;-74
2022/05/01 05:14:51;;;;;;;;;10.00;7.25;;;;;-146.67;100.00;57155.34;5044815;28;61818;-74
2022/05/01 05:17:18;;;;;;;;;6.50;6.50;;;;;-146.67;100.00;57155.34;5043869;28;61813;-74
2022/05/01 05:19:44;;;;;;;;;8.75;8.00;;;;;-146.67;100.00;57155.34;5044630;28;61934;-75
2022/05/01 05:22:10;;;;;;;;;12.75;7.00;;;;;-146.67;100.00;57155.34;5044448;28;61811;-74
2022/05/01 05:24:35;;;;;;;;;9.75;7.25;;;;;-146.67;100.00;57155.34;5044285;28;61737;-74
2022/05/01 05:27:01;;;;;;;;;6.00;6.00;;;;;-146.67;100.00;57155.34;5043756;28;61796;-74
2022/05/01 05:29:26;;;;;;;;;15.00;8.00;;;;;-146.67;100.00;57155.34;5044577;28;61748;-74
2022/05/01 05:31:52;;;;;;;;;13.00;9.50;;;;;-146.67;100.00;57155.34;5044275;28;61902;-74
2022/05/01 05:34:17;;;;;;;;;8.50;7.75;;;;;-146.67;100.00;57155.34;5043251;28;61799;-74
2022/05/01 05:36:43;;;;;;;;;9.00;6.00;;;;;-146.67;100.00;57155.34;5043724;28;62733;-75
2022/05/01 05:39:08;;;;;;;;;9.75;6.50;;;;;-146.67;100.00;57155.34;5042810;28;61777;-74
2022/05/01 05:41:35;;;;;;;;;15.25;7.25;;;;;-146.67;100.00;57155.34;5044327;28;61705;-74
2022/05/01 05:44:01;;;;;;;;;9.50;5.75;;;;;-146.67;100.00;57155.34;5044520;28;61872;-74
2022/05/01 05:46:26;;;;;;;;;6.50;6.50;;;;;-146.67;100.00;57155.34;5058440;28;64586;-75
2022/05/01 05:48:52;;;;;;;;;8.25;8.25;;;;;-146.67;100.00;57155.34;5043638;28;61782;-74
2022/05/01 05:51:17;;;;;;;;;12.50;5.00;;;;;-146.67;100.00;57155.34;5042725;28;61737;-74
2022/05/01 05:53:43;;;;;;;;;9.25;9.25;;;;;-146.67;100.00;57155.34;5043801;28;61720;-73
2022/05/01 05:56:09;;;;;;;;;8.50;8.50;;;;;-146.67;100.00;57155.34;5043278;28;62485;-73
2022/05/01 05:58:34;;;;;;;;;9.25;9.00;;;;;-146.67;100.00;57155.34;5043746;28;61955;-73
2022/05/01 06:01:00;;;;;;;;;9.75;8.75;;;;;-146.67;100.00;57155.34;5043697;28;62212;-73
2022/05/01 06:03:25;;;;;;;;;10.25;7.75;;;;;-146.67;100.00;57155.34;5044038;28;61794;-73
2022/05/01 06:05:51;;;;;;;;;15.25;10.50;;;;;-146.67;100.00;57155.34;5043097;28;61790;-73
2022/05/01 06:08:16;;;;;;;;;12.00;11.00;;;;;-146.67;100.00;57155.34;5042773;28;61878;-73
2022/05/01 06:10:42;;;;;;;;;13.75;10.00;;;;;-146.67;100.00;57155.34;5044014;28;61905;-74
2022/05/01 06:13:08;;;;;;;;;15.00;10.00;;;;;-146.67;100.00;57155.34;5044093;28;61844;-74
2022/05/01 06:15:33;;;;;;;;;7.50;6.75;;;;;-146.67;100.00;57155.34;5043072;28;61933;-74
2022/05/01 06:17:59;;;;;;;;;10.00;9.00;;;;;-146.67;100.00;57155.34;5043629;28;61929;-74
2022/05/01 06:20:26;;;;;;;;;12.50;8.00;;;;;-146.67;100.00;57155.34;5043204;28;61761;-73
2022/05/01 06:22:52;;;;;;;;;8.00;8.00;;;;;-146.67;100.00;57155.34;5043451;28;61764;-73
2022/05/01 06:25:17;;;;;;;;;13.75;11.50;;;;;-146.67;100.00;57155.34;5043018;28;61859;-74
2022/05/01 06:27:43;;;;;;;;;10.25;8.25;;;;;-146.67;100.00;57155.34;5042150;28;62625;-74
2022/05/01 06:30:12;;;;;;;;;14.75;10.50;;;;;-146.67;100.00;57155.34;5041894;28;61813;-74
2022/05/01 06:32:43;;;;;;;;;13.25;9.00;;;;;-146.67;100.00;57155.34;5042999;28;62046;-74
2022/05/01 06:35:09;;;;;;;;;13.25;13.00;;;;;-146.67;100.00;57155.34;5041480;28;62895;-74
2022/05/01 06:37:36;;;;;;;;;9.75;9.25;;;;;-146.67;100.00;57155.34;5042854;28;61920;-74
2022/05/01 06:40:03;;;;;;;;;13.00;10.50;;;;;-146.67;100.00;57155.34;5042714;28;61908;-74
2022/05/01 06:42:30;;;;;;;;;15.00;9.75;;;;;-146.67;100.00;57155.34;5043180;28;61833;-74
2022/05/01 06:44:55;;;;;;;;;12.25;9.00;;;;;-146.67;100.00;57155.34;5041247;28;61792;-74
2022/05/01 06:47:21;;;;;;;;;15.25;12.50;;;;;-146.67;100.00;57155.34;5042394;28;61824;-74
2022/05/01 06:49:46;;;;;;;;;20.00;10.75;;;;;-146.67;100.00;57155.34;5043311;28;62007;-74
2022/05/01 06:52:12;;;;;;;;;14.25;13.75;;;;;-146.67;100.00;57155.34;5042850;28;61801;-74
2022/05/01 06:54:39;;;;;;;;;17.25;11.25;;;;;-146.67;100.00;57155.34;5057762;28;63817;-75
2022/05/01 06:57:04;;;;;;;;;10.75;7.25;;;;;-146.67;100.00;57155.34;5043284;28;62006;-74
2022/05/01 06:59:30;;;;;;;;;13.75;11.25;;;;;-146.67;100.00;57155.34;5042932;28;61830;-74
2022/05/01 07:01:55;;;;;;;;;14.50;10.75;;;;;-146.67;100.00;57155.34;5043097;28;62004;-74
2022/05/01 07:04:21;;;;;;;;;13.00;11.00;;;;;-146.67;100.00;57155.34;5042548;28;61733;-74
2022/05/01 07:06:46;;;;;;;;;15.25;10.75;;;;;-146.67;100.00;57155.34;5042697;28;61775;-74
2022/05/01 07:09:11;;;;;;;;;14.25;13.75;;;;;-146.67;100.00;57155.34;5041466;28;61686;-74
2022/05/01 07:11:37;;;;;;;;;17.00;11.75;;;;;-146.67;100.00;57155.34;5043020;28;61831;-74
2022/05/01 07:14:03;;;;;;;;;19.50;14.50;;;;;-146.67;100.00;57155.34;5042418;28;61856;-74
2022/05/01 07:16:28;;;;;;;;;13.25;11.75;;;;;-146.67;100.00;57155.34;5042552;28;61935;-74
2022/05/01 07:18:54;;;;;;;;;17.75;12.00;;;;;-146.67;100.00;57155.34;5042774;28;61785;-74
2022/05/01 07:21:20;;;;;;;;;15.25;12.50;;;;;-146.67;100.00;57155.34;5042421;28;62020;-75
2022/05/01 07:23:45;;;;;;;;;16.75;14.00;;;;;-146.67;100.00;57155.34;5042302;28;61706;-74
2022/05/01 07:26:10;;;;;;;;;18.75;14.25;;;;;-146.67;100.00;57155.34;5042812;28;61807;-74
2022/05/01 07:28:36;;;;;;;;;14.75;12.25;;;;;-146.67;100.00;57155.34;5042675;28;61980;-74
2022/05/01 07:31:05;;;;;;;;;13.00;10.25;;;;;-146.67;100.00;57155.34;5042393;28;61747;-75
2022/05/01 07:33:30;;;;;;;;;12.25;11.00;;;;;-146.67;100.00;57155.34;5041957;28;63084;-74
2022/05/01 07:35:57;;;;;;;;;11.25;11.25;;;;;-146.67;100.00;57155.34;5042274;28;61890;-74
2022/05/01 07:38:23;;;;;;;;;18.00;14.00;;;;;-146.67;100.00;57155.34;5042259;28;61989;-74
2022/05/01 07:40:49;;;;;;;;;16.25;10.75;;;;;-146.67;100.00;57155.34;5042638;28;62014;-74
2022/05/01 07:43:15;;;;;;;;;13.75;12.75;;;;;-146.67;100.00;57155.34;5041897;28;61956;-74
2022/05/01 07:45:41;;;;;;;;;20.75;16.75;;;;;-146.67;100.00;57155.34;5042069;28;61727;-74
2022/05/01 07:48:06;;;;;;;;;16.00;10.75;;;;;-146.67;100.00;57155.34;5040399;28;61821;-74
2022/05/01 07:50:32;;;;;;;;;16.25;13.00;;;;;-146.67;100.00;57155.34;5042072;28;61935;-74
2022/05/01 07:52:57;;;;;;;;;15.75;13.00;;;;;-146.67;100.00;57155.34;5042018;28;61853;-75
2022/05/01 07:55:23;;;;;;;;;12.50;10.50;;;;;-146.67;100.00;57155.34;5042309;28;61880;-74
2022/05/01 07:57:49;;;;;;;;;11.00;11.00;;;;;-146.67;100.00;57155.34;5042231;28;61696;-74
2022/05/01 08:00:14;;;;;;;;;10.50;9.75;;;;;-146.67;100.00;57155.34;5042117;28;61728;-74
2022/05/01 08:05:24;;;;;;;;;12.00;10.00;;;;;-146.67;100.00;57155.34;5042054;28;61865;-74
2022/05/01 08:07:51;;;;;;;;;12.50;10.00;;;;;-146.67;100.00;57155.34;5041480;28;61772;-74
2022/05/01 08:10:17;;;;;;;;;13.50;12.00;;;;;-146.67;100.00;57155.34;5041991;28;61925;-75
2022/05/01 08:12:42;;;;;;;;;17.00;9.75;;;;;-146.67;100.00;57155.34;5041493;28;61900;-75
2022/05/01 08:15:09;;;;;;;;;14.25;12.00;;;;;-146.67;100.00;57155.34;5040452;28;61854;-75
2022/05/01 08:17:34;;;;;;;;;18.75;10.00;;;;;-146.67;100.00;57155.34;5041641;28;61911;-75
2022/05/01 08:22:44;;;;;;;;;11.00;7.75;;;;;-146.67;100.00;57155.34;5044789;28;61701;-74
2022/05/01 08:25:09;;;;;;;;;14.25;12.25;;;;;-146.67;100.00;57155.34;5045633;28;61895;-75
2022/05/01 08:27:35;;;;;;;;;19.00;11.00;;;;;-146.67;100.00;57155.34;5045390;28;61873;-74
2022/05/01 08:30:00;;;;;;;;;13.75;10.50;;;;;-146.67;100.00;57155.34;5045937;28;61915;-74
2022/05/01 08:32:26;;;;;;;;;9.50;8.00;;;;;-146.67;100.00;57155.34;5044166;28;61866;-74
2022/05/01 08:34:52;;;;;;;;;11.00;9.00;;;;;-146.67;100.00;57155.34;5044882;28;61709;-74
2022/05/01 08:37:18;;;;;;;;;11.75;9.75;;;;;-146.67;100.00;57155.34;5045685;28;61831;-74
2022/05/01 08:39:43;;;;;;;;;9.00;8.50;;;;;-146.67;100.00;57155.34;5043642;28;61797;-74
2022/05/01 08:42:09;;;;;;;;;9.50;8.50;;;;;-146.67;100.00;57155.34;5044590;28;63004;-75
2022/05/01 08:44:36;;;;;;;;;12.00;8.75;;;;;-146.67;100.00;57155.34;5045360;28;61915;-75
2022/05/01 08:47:13;;;;;;;;;10.00;9.25;;;;;-146.67;100.00;57155.34;5044347;28;61852;-75
2022/05/01 08:49:40;;;;;;;;;10.75;7.75;;;;;-146.67;100.00;57155.34;5045031;28;61926;-74
2022/05/01 08:52:07;;;;;;;;;14.00;10.50;;;;;-146.67;100.00;57155.34;5044382;28;61953;-74
2022/05/01 08:54:33;;;;;;;;;14.75;11.00;;;;;-146.67;100.00;57155.34;5043735;28;61959;-75
2022/05/01 08:56:59;;;;;;;;;8.25;8.25;;;;;-146.67;100.00;57155.34;5045036;28;62097;-74
2022/05/01 08:59:25;;;;;;;;;11.25;9.00;;;;;-146.67;100.00;57155.34;5044993;28;61866;-75
2022/05/01 09:01:52;;;;;;;;;10.25;8.00;;;;;-146.67;100.00;57155.34;5043555;28;62605;-75
2022/05/01 09:04:18;;;;;;;;;7.25;7.25;;;;;-146.67;100.00;57155.34;5044375;28;61762;-75
2022/05/01 09:06:44;;;;;;;;;11.25;9.00;;;;;-146.67;100.00;57155.34;5045097;28;61947;-75
2022/05/01 09:09:18;;;;;;;;;8.00;6.00;;;;;-146.67;100.00;57155.34;5044591;28;61876;-75
2022/05/01 09:14:29;;;;;;;;;13.00;9.25;;;;;-146.67;100.00;57155.34;5044469;28;61916;-75
2022/05/01 09:17:11;;;;;;;;;11.00;9.75;;;;;-146.67;100.00;57155.34;5043890;28;61748;-74
2022/05/01 09:19:36;;;;;;;;;15.50;9.50;;;;;-146.67;100.00;57155.34;5044789;28;61693;-74
2022/05/01 09:22:02;;;;;;;;;13.50;10.00;;;;;-146.67;100.00;57155.34;5043889;28;61858;-75
2022/05/01 09:24:29;;;;;;;;;13.50;10.50;;;;;-146.67;100.00;57155.34;5044342;28;61795;-75
2022/05/01 09:26:56;;;;;;;;;11.00;11.00;;;;;-146.67;100.00;57155.34;5044283;28;61933;-74
2022/05/01 09:29:23;;;;;;;;;10.25;10.25;;;;;-146.67;100.00;57155.34;5044714;28;61728;-75
2022/05/01 09:31:55;;;;;;;;;11.75;10.00;;;;;-146.67;100.00;57155.34;5042619;28;61760;-74
2022/05/01 09:34:28;;;;;;;;;8.75;8.00;;;;;-146.67;100.00;57155.34;5044544;28;62030;-75
2022/05/01 09:36:54;;;;;;;;;10.25;7.75;;;;;-146.67;100.00;57155.34;5044322;28;61894;-76
2022/05/01 09:39:22;;;;;;;;;19.00;11.50;;;;;-146.67;100.00;57155.34;5044120;28;61733;-75
2022/05/01 09:41:49;;;;;;;;;10.25;10.25;;;;;-146.67;100.00;57155.34;5043409;28;61700;-75
2022/05/01 09:44:16;;;;;;;;;12.25;8.00;;;;;-146.67;100.00;57155.34;5044374;28;61783;-75
2022/05/01 09:46:45;;;;;;;;;11.00;8.00;;;;;-146.67;100.00;57155.34;5043378;28;61827;-75
2022/05/01 09:49:13;;;;;;;;;12.25;10.00;;;;;-146.67;100.00;57155.34;5042828;28;62352;-75
2022/05/01 09:51:47;;;;;;;;;12.50;9.75;;;;;-146.67;100.00;57155.34;5043321;28;61902;-74
2022/05/01 09:54:22;;;;;;;;;17.50;10.25;;;;;-146.67;100.00;57155.34;5044063;28;61724;-75
2022/05/01 09:56:48;;;;;;;;;11.75;7.50;;;;;-146.67;100.00;57155.34;5044378;28;61924;-75
2022/05/01 09:59:15;;;;;;;;;5.00;5.00;;;;;-146.67;100.00;57155.34;5042737;28;61827;-74
2022/05/01 10:02:03;;;;;;;;;7.00;5.75;;;;;-146.67;100.00;57155.34;5042441;28;62812;-75
2022/05/01 10:04:30;;;;;;;;;9.50;7.25;;;;;-146.67;100.00;57155.34;5043992;28;61828;-76
2022/05/01 10:06:57;;;;;;;;;9.00;6.25;;;;;-146.67;100.00;57155.34;5043810;28;61728;-75
2022/05/01 10:09:26;;;;;;;;;9.25;7.00;;;;;-146.67;100.00;57155.34;5043624;28;61834;-75
2022/05/01 10:11:55;;;;;;;;;6.50;5.25;;;;;-146.67;100.00;57155.34;5042917;28;61823;-75
2022/05/01 10:14:21;;;;;;;;;12.75;10.00;;;;;-146.67;100.00;57155.34;5043876;28;61744;-75
2022/05/01 10:16:47;;;;;;;;;6.25;6.25;;;;;-146.67;100.00;57155.34;5041780;28;61974;-75
2022/05/01 10:19:18;;;;;;;;;7.75;7.25;;;;;-146.67;100.00;57155.34;5043986;28;61715;-75
2022/05/01 10:21:49;;;;;;;;;8.50;7.25;;;;;-146.67;100.00;57155.34;5041278;28;62847;-75
2022/05/01 10:24:15;;;;;;;;;9.50;6.75;;;;;-146.67;100.00;57155.34;5043369;28;61799;-75
2022/05/01 10:27:06;;;;;;;;;7.25;7.00;;;;;-146.67;100.00;57155.34;5043692;28;61846;-75
2022/05/01 10:29:40;;;;;;;;;6.25;6.25;;;;;-146.67;100.00;57155.34;5043363;28;61777;-74
2022/05/01 10:32:21;;;;;;;;;9.25;4.50;;;;;-146.67;100.00;57155.34;5042404;28;61908;-75
2022/05/01 10:34:49;;;;;;;;;7.50;7.50;;;;;-146.67;100.00;57155.34;5043570;28;61987;-75
2022/05/01 10:37:26;;;;;;;;;7.75;5.00;;;;;-146.67;100.00;57155.34;5043468;28;61734;-75
2022/05/01 10:39:53;;;;;;;;;5.50;4.00;;;;;-146.67;100.00;57155.34;5043540;28;62036;-75
2022/05/01 10:42:38;;;;;;;;;6.50;5.00;;;;;-146.67;100.00;57155.34;5041434;28;63408;-75
2022/05/01 10:45:25;;;;;;;;;6.25;4.25;;;;;-146.67;100.00;57155.34;5041663;28;61918;-75
2022/05/01 10:47:53;;;;;;;;;6.50;4.75;;;;;-146.67;100.00;57155.34;5042381;28;61970;-74
2022/05/01 10:50:24;;;;;;;;;9.00;7.25;;;;;-146.67;100.00;57155.34;5043323;28;61755;-75
2022/05/01 10:53:16;;;;;;;;;5.00;5.00;;;;;-146.67;100.00;57155.34;5042687;28;61783;-75
2022/05/01 10:55:52;;;;;;;;;7.00;6.00;;;;;-146.67;100.00;57155.34;5043384;28;61705;-75
2022/05/01 10:58:25;;;;;;;;;6.00;5.00;;;;;-146.67;100.00;57155.34;5042958;28;62108;-75
2022/05/01 11:00:51;;;;;;;;;16.00;8.75;;;;;-146.67;100.00;57155.34;5042892;28;61925;-75
2022/05/01 11:03:26;;;;;;;;;9.75;7.00;;;;;-146.67;100.00;57155.34;5042345;28;61754;-75
2022/05/01 11:06:04;;;;;;;;;7.50;6.25;;;;;;;;5116988;27;61711;-75
2022/05/01 11:08:39;;;;;;;;;3.25;3.25;;;;;;;;5120398;27;61945;-76
2022/05/01 11:11:07;;;;;;;;;5.00;3.25;;;;;;;;5120281;27;61829;-75
2022/05/01 11:13:35;;;;;;;;;5.75;5.25;;;;;;;;5119214;27;61774;-75
2022/05/01 11:16:00;;;;;;;;;6.00;5.00;;;;;;;;5120110;27;62044;-75
2022/05/01 11:18:30;;;;;;;;;7.50;6.75;;;;;;;;5120401;27;61617;-76
2022/05/01 11:20:56;;;;;;;;;7.75;6.00;;;;;;;;5120445;27;61767;-75
2022/05/01 11:23:29;;;;;;;;;6.75;5.75;;;;;;;;5118253;27;61731;-75
2022/05/01 11:26:05;;;;;;;;;5.75;4.75;;;;;;;;5118970;27;61871;-76
2022/05/01 11:28:49;;;;;;;;;7.25;5.75;;;;;;;;5118508;27;61940;-76
2022/05/01 11:31:33;;;;;;;;;7.25;4.25;;;;;;;;5120007;27;61942;-75